createdAt,value
2018-09-21T00:00:25.332Z,22.1
2018-09-21T00:01:15.404Z,22.1
2018-09-21T00:02:06.058Z,22.1
2018-09-21T00:02:55.764Z,22.1
2018-09-21T00:03:44.694Z,22.1
2018-09-21T00:04:35.971Z,22.1
2018-09-21T00:05:26.236Z,22.1
2018-09-21T00:06:16.327Z,22.1
2018-09-21T00:07:05.815Z,22
2018-09-21T00:07:56.177Z,22.1
2018-09-21T00:08:45.943Z,22.1
2018-09-21T00:09:36.467Z,22.1
2018-09-21T00:10:26.231Z,22.1
2018-09-21T00:11:16.416Z,22.1
2018-09-21T00:12:05.388Z,22.1
2018-09-21T00:12:56.283Z,22
2018-09-21T00:13:46.317Z,22
2018-09-21T00:14:36.442Z,22.1
2018-09-21T00:15:26.893Z,22
2018-09-21T00:16:16.226Z,22
2018-09-21T00:17:06.580Z,22
2018-09-21T00:17:56.575Z,22
2018-09-21T00:56:28.738Z,21.6
2018-09-21T00:57:19.253Z,21.6
2018-09-21T00:58:09.585Z,21.6
2018-09-21T00:58:59.116Z,21.6
2018-09-21T00:59:49.410Z,21.6
2018-09-21T01:00:39.523Z,21.6
2018-09-21T01:01:30.397Z,21.6
2018-09-21T01:02:19.637Z,21.6
2018-09-21T01:03:09.767Z,21.6
2018-09-21T01:04:00.043Z,21.6
2018-09-21T01:04:49.573Z,21.6
2018-09-21T01:05:39.585Z,21.6
2018-09-21T01:06:29.364Z,21.7
2018-09-21T01:07:18.843Z,21.7
2018-09-21T01:08:10.095Z,21.7
2018-09-21T01:08:59.869Z,21.7
2018-09-21T01:09:50.247Z,21.6
2018-09-21T01:10:39.720Z,21.7
2018-09-21T01:11:30.836Z,21.7
2018-09-21T01:12:20.380Z,21.7
2018-09-21T01:13:10.172Z,21.7
2018-09-21T01:14:00.228Z,21.8
2018-09-21T01:14:50.887Z,21.7
2018-09-21T01:15:40.635Z,21.7
2018-09-21T01:16:30.342Z,21.7
2018-09-21T01:17:20.147Z,21.7
2018-09-21T01:18:11.149Z,21.7
2018-09-21T01:19:00.411Z,21.7
2018-09-21T01:19:50.099Z,21.7
2018-09-21T01:20:40.435Z,21.7
2018-09-21T01:21:30.746Z,21.7
2018-09-21T01:22:21.446Z,21.7
2018-09-21T01:23:10.906Z,21.7
2018-09-21T01:24:00.431Z,21.7
2018-09-21T01:24:51.322Z,21.7
2018-09-21T01:25:41.382Z,21.7
2018-09-21T01:26:31.706Z,21.7
2018-09-21T01:27:20.963Z,21.6
2018-09-21T01:28:11.293Z,21.7
2018-09-21T01:29:01.594Z,21.7
2018-09-21T01:29:51.701Z,21.6
2018-09-21T01:30:40.984Z,21.6
2018-09-21T01:31:31.250Z,21.6
2018-09-21T01:32:22.133Z,21.6
2018-09-21T01:33:11.671Z,21.6
2018-09-21T01:34:02.038Z,21.6
2018-09-21T01:34:51.801Z,21.6
2018-09-21T01:35:41.848Z,21.6
2018-09-21T01:36:32.525Z,21.6
2018-09-21T01:37:21.930Z,21.6
2018-09-21T01:38:12.091Z,21.6
2018-09-21T01:39:02.657Z,21.6
2018-09-21T01:39:52.478Z,21.6
2018-09-21T01:40:42.255Z,21.6
2018-09-21T01:41:32.018Z,21.6
2018-09-21T01:42:23.138Z,21.6
2018-09-21T01:43:12.410Z,21.6
2018-09-21T01:44:02.258Z,21.6
2018-09-21T01:44:52.259Z,21.6
2018-09-21T01:45:42.602Z,21.6
2018-09-21T01:46:33.185Z,21.6
2018-09-21T01:47:23.091Z,21.6
2018-09-21T01:48:13.315Z,21.6
2018-09-21T01:49:02.635Z,21.6
2018-09-21T01:49:52.682Z,21.6
2018-09-21T01:50:42.854Z,21.6
2018-09-21T01:51:32.745Z,21.6
2018-09-21T01:52:23.897Z,21.6
2018-09-21T01:53:13.772Z,21.6
2018-09-21T01:54:03.492Z,21.6
2018-09-21T01:54:53.239Z,21.6
2018-09-21T01:55:43.391Z,21.6
2018-09-21T01:56:33.694Z,21.6
2018-09-21T01:57:22.424Z,21.6
2018-09-21T01:58:13.275Z,21.6
2018-09-21T01:59:03.578Z,21.6
2018-09-21T01:59:53.654Z,21.6
2018-09-21T02:00:43.728Z,21.6
2018-09-21T02:01:33.766Z,21.6
2018-09-21T02:02:23.827Z,21.6
2018-09-21T02:03:14.214Z,21.6
2018-09-21T02:04:04.278Z,21.5
2018-09-21T02:04:54.631Z,21.6
2018-09-21T02:05:43.839Z,21.6
2018-09-21T02:06:35.356Z,21.6
2018-09-21T02:07:24.352Z,21.6
2018-09-21T02:08:15.066Z,21.5
2018-09-21T02:09:04.126Z,21.6
2018-09-21T02:09:54.696Z,21.6
2018-09-21T02:10:44.768Z,21.6
2018-09-21T02:11:34.516Z,21.6
2018-09-21T02:12:23.171Z,21.5
2018-09-21T02:13:14.876Z,21.5
2018-09-21T02:14:04.703Z,21.5
2018-09-21T02:14:54.833Z,21.5
2018-09-21T02:15:45.447Z,21.5
2018-09-21T02:16:34.846Z,21.5
2018-09-21T02:17:25.239Z,21.5
2018-09-21T02:18:15.045Z,21.5
2018-09-21T02:19:05.410Z,21.5
2018-09-21T02:19:55.424Z,21.5
2018-09-21T02:20:44.945Z,21.5
2018-09-21T02:21:35.312Z,21.5
2018-09-21T02:22:26.134Z,21.5
2018-09-21T02:23:16.300Z,21.5
2018-09-21T02:24:05.483Z,21.5
2018-09-21T02:24:55.823Z,21.5
2018-09-21T02:25:46.099Z,21.5
2018-09-21T02:26:35.345Z,21.4
2018-09-21T02:27:25.715Z,21.5
2018-09-21T02:28:16.068Z,21.5
2018-09-21T02:29:06.400Z,21.5
2018-09-21T02:29:55.553Z,21.4
2018-09-21T02:30:46.274Z,21.5
2018-09-21T02:31:35.835Z,21.5
2018-09-21T02:32:26.712Z,21.5
2018-09-21T02:33:16.517Z,21.5
2018-09-21T02:34:06.574Z,21.5
2018-09-21T02:34:56.032Z,21.5
2018-09-21T02:35:46.360Z,21.5
2018-09-21T02:36:36.419Z,21.5
2018-09-21T02:37:26.479Z,21.5
2018-09-21T02:38:16.500Z,21.5
2018-09-21T02:39:06.052Z,21.4
2018-09-21T02:39:57.196Z,21.4
2018-09-21T02:40:47.287Z,21.4
2018-09-21T02:41:38.187Z,21.4
2018-09-21T02:42:27.439Z,21.4
2018-09-21T02:43:17.252Z,21.4
2018-09-21T02:44:07.004Z,21.4
2018-09-21T02:44:56.175Z,21.4
2018-09-21T02:45:47.653Z,21.4
2018-09-21T02:46:36.918Z,21.4
2018-09-21T02:47:27.521Z,21.4
2018-09-21T02:48:17.316Z,21.4
2018-09-21T02:49:06.874Z,21.4
2018-09-21T02:49:57.994Z,21.4
2018-09-21T02:50:47.490Z,21.4
2018-09-21T02:51:38.429Z,21.4
2018-09-21T02:52:27.357Z,21.4
2018-09-21T02:53:16.802Z,21.4
2018-09-21T02:54:08.166Z,21.4
2018-09-21T02:54:58.326Z,21.4
2018-09-21T02:55:47.544Z,21.4
2018-09-21T02:56:37.618Z,21.4
2018-09-21T02:57:28.346Z,21.4
2018-09-21T02:58:18.016Z,21.4
2018-09-21T02:59:08.649Z,21.4
2018-09-21T02:59:58.778Z,21.4
2018-09-21T03:00:51.059Z,21.4
2018-09-21T03:01:38.279Z,21.4
2018-09-21T03:02:28.479Z,21.4
2018-09-21T03:03:18.425Z,21.4
2018-09-21T03:04:09.271Z,21.4
2018-09-21T03:04:58.589Z,21.4
2018-09-21T03:05:48.572Z,21.4
2018-09-21T03:06:38.940Z,21.4
2018-09-21T03:07:27.613Z,21.4
2018-09-21T03:08:18.797Z,21.4
2018-09-21T03:09:09.418Z,21.4
2018-09-21T03:09:58.699Z,21.4
2018-09-21T03:10:48.924Z,21.4
2018-09-21T03:11:39.580Z,21.4
2018-09-21T03:12:29.038Z,21.4
2018-09-21T03:13:20.867Z,21.4
2018-09-21T03:14:09.479Z,21.4
2018-09-21T03:15:00.121Z,21.4
2018-09-21T03:15:49.062Z,21.4
2018-09-21T03:16:39.131Z,21.4
2018-09-21T03:17:30.234Z,21.4
2018-09-21T03:18:19.387Z,21.4
2018-09-21T03:19:09.497Z,21.4
2018-09-21T03:19:59.860Z,21.4
2018-09-21T03:20:50.092Z,21.4
2018-09-21T03:21:39.883Z,21.4
2018-09-21T03:22:30.102Z,21.4
2018-09-21T03:23:20.230Z,21.4
2018-09-21T03:24:10.237Z,21.4
2018-09-21T03:25:01.102Z,21.4
2018-09-21T03:25:50.704Z,21.4
2018-09-21T03:26:39.880Z,21.4
2018-09-21T03:27:30.855Z,21.4
2018-09-21T03:28:19.963Z,21.3
2018-09-21T03:29:10.368Z,21.3
2018-09-21T03:30:00.974Z,21.3
2018-09-21T03:30:51.220Z,21.3
2018-09-21T03:31:40.565Z,21.3
2018-09-21T03:32:29.782Z,21.3
2018-09-21T03:33:21.212Z,21.3
2018-09-21T03:34:11.036Z,21.3
2018-09-21T03:35:00.945Z,21.3
2018-09-21T03:35:51.474Z,21.3
2018-09-21T03:36:41.488Z,21.3
2018-09-21T03:37:31.532Z,21.3
2018-09-21T03:38:21.015Z,21.3
2018-09-21T03:39:10.786Z,21.3
2018-09-21T03:40:00.844Z,21.3
2018-09-21T03:40:51.173Z,21.3
2018-09-21T03:41:41.591Z,21.3
2018-09-21T03:42:31.878Z,21.3
2018-09-21T03:43:21.090Z,21.3
2018-09-21T03:44:11.684Z,21.3
2018-09-21T03:45:01.522Z,21.3
2018-09-21T03:45:51.273Z,21.3
2018-09-21T03:46:41.156Z,21.3
2018-09-21T03:47:31.446Z,21.3
2018-09-21T03:48:22.018Z,21.3
2018-09-21T03:49:12.408Z,21.3
2018-09-21T03:50:02.168Z,21.3
2018-09-21T03:50:51.916Z,21.3
2018-09-21T03:51:42.285Z,21.3
2018-09-21T03:52:32.068Z,21.3
2018-09-21T03:53:21.275Z,21.3
2018-09-21T03:54:12.487Z,21.3
2018-09-21T03:55:02.612Z,21.3
2018-09-21T03:55:52.430Z,21.2
2018-09-21T03:56:42.657Z,21.2
2018-09-21T03:57:32.505Z,21.3
2018-09-21T03:58:22.240Z,21.3
2018-09-21T03:59:12.885Z,21.3
2018-09-21T04:00:02.679Z,21.2
2018-09-21T04:00:53.613Z,21.3
2018-09-21T04:01:43.624Z,21.3
2018-09-21T04:02:32.757Z,21.2
2018-09-21T04:03:22.934Z,21.2
2018-09-21T04:04:13.240Z,21.2
2018-09-21T04:05:03.295Z,21.2
2018-09-21T04:05:53.599Z,21.2
2018-09-21T04:06:43.518Z,21.2
2018-09-21T04:07:33.281Z,21.2
2018-09-21T04:08:23.241Z,21.2
2018-09-21T04:09:13.602Z,21.2
2018-09-21T04:10:03.371Z,21.2
2018-09-21T04:10:53.489Z,21.2
2018-09-21T04:11:44.054Z,21.2
2018-09-21T04:12:33.880Z,21.2
2018-09-21T04:13:23.643Z,21.2
2018-09-21T04:14:13.411Z,21.2
2018-09-21T04:15:03.463Z,21.2
2018-09-21T04:15:53.581Z,21.2
2018-09-21T04:16:44.251Z,21.2
2018-09-21T04:17:33.724Z,21.2
2018-09-21T04:18:24.127Z,21.2
2018-09-21T04:19:14.088Z,21.2
2018-09-21T04:20:54.516Z,21.2
2018-09-21T04:21:44.465Z,21.2
2018-09-21T04:22:34.065Z,21.2
2018-09-21T04:23:24.088Z,21.2
2018-09-21T04:24:14.782Z,21.2
2018-09-21T04:25:54.658Z,21.2
2018-09-21T04:28:24.854Z,21.2
2018-09-21T04:29:14.625Z,21.2
2018-09-21T04:32:35.590Z,21.2
2018-09-21T04:39:16.167Z,21.2
2018-09-21T04:46:46.184Z,21.1
2018-09-21T04:50:56.720Z,21.1
2018-09-21T05:25:17.642Z,20.9
2018-09-21T05:26:08.228Z,20.9
2018-09-21T05:26:58.615Z,20.9
2018-09-21T05:27:48.438Z,20.9
2018-09-21T05:28:38.156Z,20.9
2018-09-21T05:29:28.184Z,21
2018-09-21T05:30:18.227Z,21
2018-09-21T05:31:08.347Z,21
2018-09-21T05:31:58.887Z,21
2018-09-21T05:32:49.017Z,21.1
2018-09-21T05:33:37.990Z,21.1
2018-09-21T05:34:30.738Z,21.1
2018-09-21T05:35:21.190Z,21.1
2018-09-21T05:39:28.676Z,21.2
2018-09-21T05:40:18.433Z,21.2
2018-09-21T05:41:08.210Z,21.2
2018-09-21T05:41:58.768Z,21.3
2018-09-21T05:42:49.150Z,21.3
2018-09-21T05:43:39.328Z,21.3
2018-09-21T05:44:28.510Z,21.3
2018-09-21T05:45:19.152Z,21.3
2018-09-21T05:46:09.243Z,21.3
2018-09-21T05:47:00.435Z,21.3
2018-09-21T05:47:49.618Z,21.3
2018-09-21T05:48:39.980Z,21.3
2018-09-21T05:49:29.111Z,21.3
2018-09-21T05:50:19.813Z,21.3
2018-09-21T05:51:08.970Z,21.3
2018-09-21T05:51:59.342Z,21.3
2018-09-21T05:52:49.713Z,21.3
2018-09-21T05:53:39.528Z,21.3
2018-09-21T05:54:29.381Z,21.3
2018-09-21T05:55:20.207Z,21.3
2018-09-21T05:56:11.056Z,21.3
2018-09-21T05:56:59.683Z,21.3
2018-09-21T05:57:49.383Z,21.3
2018-09-21T05:58:40.199Z,21.3
2018-09-21T05:59:29.462Z,21.3
2018-09-21T06:00:19.607Z,21.3
2018-09-21T06:01:09.930Z,21.3
2018-09-21T06:01:59.955Z,21.3
2018-09-21T06:02:49.848Z,21.3
2018-09-21T06:03:40.068Z,21.3
2018-09-21T06:04:30.542Z,21.3
2018-09-21T06:05:20.122Z,21.3
2018-09-21T06:06:10.848Z,21.3
2018-09-21T06:07:01.326Z,21.3
2018-09-21T06:07:52.532Z,21.4
2018-09-21T06:08:40.882Z,21.4
2018-09-21T06:09:31.808Z,21.4
2018-09-21T06:10:20.432Z,21.4
2018-09-21T06:11:11.319Z,21.4
2018-09-21T06:12:00.805Z,21.4
2018-09-21T06:12:51.777Z,21.4
2018-09-21T06:13:41.522Z,21.4
2018-09-21T06:14:31.887Z,21.3
2018-09-21T06:15:20.969Z,21.3
2018-09-21T06:16:10.951Z,21.4
2018-09-21T06:17:01.226Z,21.4
2018-09-21T06:17:51.556Z,21.4
2018-09-21T06:18:41.872Z,21.3
2018-09-21T06:19:33.152Z,21.4
2018-09-21T06:20:22.268Z,21.4
2018-09-21T06:21:13.520Z,21.4
2018-09-21T06:22:01.664Z,21.4
2018-09-21T06:22:54.241Z,21.4
2018-09-21T06:23:42.884Z,21.4
2018-09-21T06:24:32.657Z,21.4
2018-09-21T06:25:22.701Z,21.4
2018-09-21T06:26:12.980Z,21.4
2018-09-21T06:27:03.089Z,21.4
2018-09-21T06:27:52.573Z,21.4
2018-09-21T06:28:42.732Z,21.4
2018-09-21T06:29:32.436Z,21.4
2018-09-21T06:30:22.794Z,21.4
2018-09-21T06:31:12.908Z,21.4
2018-09-21T06:32:03.529Z,21.4
2018-09-21T06:32:52.731Z,21.4
2018-09-21T06:33:43.037Z,21.4
2018-09-21T06:34:32.851Z,21.4
2018-09-21T06:35:23.431Z,21.4
2018-09-21T06:36:12.930Z,21.4
2018-09-21T06:37:03.473Z,21.4
2018-09-21T06:37:53.010Z,21.4
2018-09-21T06:38:43.098Z,21.4
2018-09-21T06:39:33.175Z,21.4
2018-09-21T06:40:23.002Z,21.4
2018-09-21T06:41:14.205Z,21.4
2018-09-21T06:42:03.652Z,21.4
2018-09-21T06:42:53.180Z,21.4
2018-09-21T06:43:43.785Z,21.4
2018-09-21T06:44:34.560Z,21.4
2018-09-21T06:45:23.625Z,21.4
2018-09-21T06:46:13.377Z,21.4
2018-09-21T06:47:03.957Z,21.4
2018-09-21T06:47:53.746Z,21.4
2018-09-21T06:48:43.818Z,21.4
2018-09-21T06:49:33.857Z,21.4
2018-09-21T06:50:24.212Z,21.4
2018-09-21T06:51:14.305Z,21.4
2018-09-21T06:52:04.360Z,21.5
2018-09-21T06:52:54.680Z,21.5
2018-09-21T06:53:43.369Z,21.5
2018-09-21T06:54:34.652Z,21.5
2018-09-21T06:55:24.048Z,21.5
2018-09-21T06:56:13.563Z,21.5
2018-09-21T06:57:03.899Z,21.5
2018-09-21T06:57:54.246Z,21.6
2018-09-21T06:58:44.919Z,21.6
2018-09-21T06:59:35.207Z,21.6
2018-09-21T07:00:24.429Z,21.6
2018-09-21T07:01:14.732Z,21.6
2018-09-21T07:02:07.549Z,21.6
2018-09-21T07:02:54.959Z,21.6
2018-09-21T07:03:45.483Z,21.6
2018-09-21T07:04:35.299Z,21.6
2018-09-21T07:05:25.464Z,21.6
2018-09-21T07:06:15.163Z,21.6
2018-09-21T07:07:06.069Z,21.6
2018-09-21T07:07:55.596Z,21.7
2018-09-21T07:08:46.148Z,21.7
2018-09-21T07:09:35.464Z,21.7
2018-09-21T07:10:26.066Z,21.7
2018-09-21T07:11:16.423Z,21.7
2018-09-21T07:12:06.291Z,21.8
2018-09-21T07:12:55.456Z,21.8
2018-09-21T07:13:44.913Z,21.7
2018-09-21T07:14:35.816Z,21.7
2018-09-21T07:15:26.098Z,21.7
2018-09-21T07:16:16.255Z,21.7
2018-09-21T07:17:06.121Z,21.7
2018-09-21T07:17:55.823Z,21.7
2018-09-21T07:18:46.180Z,21.7
2018-09-21T07:19:35.883Z,21.6
2018-09-21T07:20:26.246Z,21.6
2018-09-21T07:21:16.815Z,21.7
2018-09-21T07:22:06.610Z,21.7
2018-09-21T07:22:57.217Z,21.7
2018-09-21T07:23:46.557Z,21.8
2018-09-21T07:24:36.007Z,21.8
2018-09-21T07:25:27.179Z,21.8
2018-09-21T07:26:16.965Z,21.8
2018-09-21T07:27:07.314Z,21.8
2018-09-21T07:27:58.038Z,21.8
2018-09-21T07:28:47.457Z,21.8
2018-09-21T07:29:36.910Z,21.8
2018-09-21T07:30:27.533Z,21.8
2018-09-21T07:31:18.072Z,21.8
2018-09-21T07:32:07.350Z,21.8
2018-09-21T07:32:56.725Z,21.8
2018-09-21T07:33:47.237Z,21.8
2018-09-21T07:34:37.834Z,21.8
2018-09-21T07:35:27.424Z,21.8
2018-09-21T07:36:16.305Z,21.8
2018-09-21T07:37:07.822Z,21.8
2018-09-21T07:37:56.992Z,21.8
2018-09-21T07:38:48.237Z,21.8
2018-09-21T07:39:38.514Z,21.8
2018-09-21T07:40:28.047Z,21.8
2018-09-21T07:41:17.814Z,21.8
2018-09-21T07:42:08.081Z,21.8
2018-09-21T07:42:59.073Z,21.8
2018-09-21T07:43:47.196Z,21.8
2018-09-21T07:44:38.486Z,21.8
2018-09-21T07:45:27.594Z,21.8
2018-09-21T07:46:18.722Z,21.8
2018-09-21T07:47:08.254Z,21.7
2018-09-21T07:47:58.663Z,21.8
2018-09-21T07:48:49.084Z,21.8
2018-09-21T07:49:38.144Z,21.8
2018-09-21T07:50:29.263Z,21.8
2018-09-21T07:51:18.826Z,21.8
2018-09-21T07:52:09.196Z,21.8
2018-09-21T07:52:58.681Z,21.8
2018-09-21T07:53:48.988Z,21.8
2018-09-21T07:54:39.734Z,21.7
2018-09-21T07:55:29.394Z,21.8
2018-09-21T07:56:19.476Z,21.8
2018-09-21T07:57:09.793Z,21.8
2018-09-21T07:57:59.335Z,21.8
2018-09-21T07:58:48.508Z,21.8
2018-09-21T07:59:39.159Z,21.8
2018-09-21T08:00:29.486Z,21.9
2018-09-21T08:01:19.686Z,21.9
2018-09-21T08:02:09.461Z,21.9
2018-09-21T08:03:00.053Z,22
2018-09-21T08:03:49.735Z,22.1
2018-09-21T08:04:39.592Z,22.1
2018-09-21T08:05:29.349Z,22.1
2018-09-21T08:06:19.431Z,22.1
2018-09-21T08:07:11.023Z,22.2
2018-09-21T08:08:00.626Z,22.3
2018-09-21T08:08:50.405Z,22.3
2018-09-21T08:09:40.743Z,22.3
2018-09-21T08:10:30.382Z,22.3
2018-09-21T08:11:20.592Z,22.3
2018-09-21T08:12:10.690Z,22.3
2018-09-21T08:13:02.054Z,22.4
2018-09-21T08:13:50.241Z,22.4
2018-09-21T08:14:40.285Z,22.4
2018-09-21T08:15:30.098Z,22.4
2018-09-21T08:16:19.318Z,22.4
2018-09-21T08:17:11.042Z,22.4
2018-09-21T08:18:00.849Z,22.4
2018-09-21T08:18:51.557Z,22.4
2018-09-21T08:19:41.760Z,22.4
2018-09-21T08:20:31.622Z,22.5
2018-09-21T08:21:21.082Z,22.4
2018-09-21T08:22:11.462Z,22.5
2018-09-21T08:23:00.367Z,22.5
2018-09-21T08:23:50.949Z,22.5
2018-09-21T08:24:41.077Z,22.5
2018-09-21T08:25:31.422Z,22.5
2018-09-21T08:26:21.502Z,22.6
2018-09-21T08:27:11.336Z,22.6
2018-09-21T08:28:01.601Z,22.6
2018-09-21T08:28:51.222Z,22.6
2018-09-21T08:29:40.934Z,22.6
2018-09-21T08:30:31.481Z,22.6
2018-09-21T08:31:21.291Z,22.6
2018-09-21T08:32:11.884Z,22.6
2018-09-21T08:33:01.726Z,22.6
2018-09-21T08:33:52.551Z,22.6
2018-09-21T08:34:42.042Z,22.7
2018-09-21T08:35:31.934Z,22.7
2018-09-21T08:36:22.804Z,22.7
2018-09-21T08:37:13.456Z,22.7
2018-09-21T08:38:02.672Z,22.7
2018-09-21T08:38:52.255Z,22.8
2018-09-21T08:39:42.151Z,22.8
2018-09-21T08:40:31.986Z,22.8
2018-09-21T08:41:22.119Z,22.8
2018-09-21T08:42:13.143Z,22.8
2018-09-21T08:43:02.978Z,22.8
2018-09-21T08:43:53.046Z,22.8
2018-09-21T08:44:41.890Z,22.8
2018-09-21T08:45:34.691Z,22.8
2018-09-21T08:46:22.533Z,22.8
2018-09-21T08:47:13.002Z,22.8
2018-09-21T08:48:02.626Z,22.8
2018-09-21T08:48:53.251Z,22.8
2018-09-21T08:49:43.530Z,22.8
2018-09-21T08:50:33.308Z,22.8
2018-09-21T08:51:23.886Z,22.9
2018-09-21T08:52:13.737Z,22.9
2018-09-21T08:53:02.225Z,22.9
2018-09-21T08:53:53.157Z,22.9
2018-09-21T08:54:44.193Z,22.9
2018-09-21T08:55:33.702Z,22.9
2018-09-21T08:56:24.552Z,22.9
2018-09-21T08:57:13.875Z,22.9
2018-09-21T08:58:04.162Z,22.9
2018-09-21T08:58:53.375Z,22.9
2018-09-21T08:59:43.447Z,22.9
2018-09-21T09:00:33.230Z,22.9
2018-09-21T09:01:24.005Z,22.9
2018-09-21T09:02:14.911Z,22.9
2018-09-21T09:03:06.955Z,23
2018-09-21T09:03:55.212Z,23
2018-09-21T09:04:45.507Z,23
2018-09-21T09:05:34.973Z,23
2018-09-21T09:06:25.167Z,23
2018-09-21T09:07:15.818Z,23.1
2018-09-21T09:08:04.971Z,23
2018-09-21T09:08:54.942Z,23.1
2018-09-21T09:09:44.524Z,23.1
2018-09-21T09:10:34.297Z,23.1
2018-09-21T09:11:24.344Z,23.1
2018-09-21T09:12:14.725Z,23.1
2018-09-21T09:13:04.532Z,23.1
2018-09-21T09:13:54.707Z,23.1
2018-09-21T09:14:44.882Z,23.1
2018-09-21T09:15:35.264Z,23.1
2018-09-21T09:16:24.942Z,23.1
2018-09-21T09:17:15.463Z,23.1
2018-09-21T09:18:05.144Z,23.1
2018-09-21T09:18:55.498Z,23.1
2018-09-21T09:19:44.682Z,23.1
2018-09-21T09:20:35.423Z,23.1
2018-09-21T09:21:25.915Z,23.1
2018-09-21T09:22:16.029Z,23.1
2018-09-21T09:23:06.360Z,23.1
2018-09-21T09:40:02.817Z,23.1
2018-09-21T09:40:52.887Z,23.1
2018-09-21T09:41:43.552Z,23.1
2018-09-21T09:42:33.344Z,23.1
2018-09-21T09:43:24.707Z,23.1
2018-09-21T09:44:13.967Z,23.1
2018-09-21T09:45:04.547Z,23.1
2018-09-21T09:45:53.045Z,23.2
2018-09-21T09:46:43.569Z,23.2
2018-09-21T09:47:33.902Z,23.2
2018-09-21T09:48:24.493Z,23.2
2018-09-21T09:49:15.225Z,23.2
2018-09-21T09:50:04.177Z,23.2
2018-09-21T09:50:53.307Z,23.2
2018-09-21T09:51:44.033Z,23.3
2018-09-21T09:52:34.037Z,23.3
2018-09-21T09:53:24.094Z,23.3
2018-09-21T09:54:14.429Z,23.3
2018-09-21T09:55:05.242Z,23.3
2018-09-21T09:55:53.700Z,23.3
2018-09-21T09:56:44.092Z,23.3
2018-09-21T09:57:34.676Z,23.3
2018-09-21T09:58:24.436Z,23.3
2018-09-21T09:59:14.527Z,23.3
2018-09-21T10:00:03.772Z,23.4
2018-09-21T10:00:54.521Z,23.4
2018-09-21T10:01:44.981Z,23.4
2018-09-21T10:02:34.504Z,23.4
2018-09-21T10:03:24.568Z,23.4
2018-09-21T10:04:15.231Z,23.4
2018-09-21T10:05:05.028Z,23.4
2018-09-21T10:05:53.921Z,23.4
2018-09-21T10:06:44.831Z,23.4
2018-09-21T10:07:33.793Z,23.4
2018-09-21T10:08:24.953Z,23.4
2018-09-21T10:09:15.333Z,23.4
2018-09-21T10:10:05.592Z,23.4
2018-09-21T10:10:55.758Z,23.4
2018-09-21T10:11:45.435Z,23.5
2018-09-21T10:12:34.995Z,23.4
2018-09-21T10:13:25.130Z,23.4
2018-09-21T10:14:15.378Z,23.4
2018-09-21T10:15:04.893Z,23.4
2018-09-21T10:15:55.367Z,23.5
2018-09-21T10:16:45.143Z,23.5
2018-09-21T10:17:35.469Z,23.5
2018-09-21T10:18:24.946Z,23.5
2018-09-21T10:19:15.835Z,23.5
2018-09-21T10:20:05.148Z,23.5
2018-09-21T10:20:57.080Z,23.5
2018-09-21T10:21:44.990Z,23.5
2018-09-21T10:22:36.022Z,23.5
2018-09-21T10:23:25.872Z,23.5
2018-09-21T10:24:17.197Z,23.5
2018-09-21T10:25:06.487Z,23.5
2018-09-21T10:25:57.365Z,23.6
2018-09-21T10:26:46.712Z,23.6
2018-09-21T10:27:41.659Z,23.6
2018-09-21T10:28:32.092Z,23.6
2018-09-21T10:29:17.071Z,23.6
2018-09-21T10:30:07.344Z,23.6
2018-09-21T10:30:57.370Z,23.6
2018-09-21T10:31:47.117Z,23.6
2018-09-21T10:32:36.504Z,23.6
2018-09-21T10:33:28.337Z,23.6
2018-09-21T10:34:16.677Z,23.6
2018-09-21T10:35:07.079Z,23.6
2018-09-21T10:35:57.609Z,23.6
2018-09-21T10:36:47.354Z,23.6
2018-09-21T10:37:36.702Z,23.6
2018-09-21T10:38:27.523Z,23.6
2018-09-21T10:39:19.448Z,23.6
2018-09-21T10:40:10.074Z,23.6
2018-09-21T10:40:58.009Z,23.6
2018-09-21T10:41:47.694Z,23.6
2018-09-21T10:42:39.529Z,23.6
2018-09-21T10:43:27.073Z,23.6
2018-09-21T10:44:17.967Z,23.6
2018-09-21T10:45:08.341Z,23.6
2018-09-21T10:45:58.361Z,23.7
2018-09-21T10:46:48.256Z,23.7
2018-09-21T10:47:39.712Z,23.7
2018-09-21T10:48:27.720Z,23.7
2018-09-21T10:49:17.538Z,23.7
2018-09-21T10:50:08.096Z,23.7
2018-09-21T10:51:00.471Z,23.7
2018-09-21T10:51:47.555Z,23.7
2018-09-21T10:52:38.291Z,23.7
2018-09-21T10:53:28.206Z,23.7
2018-09-21T10:54:17.868Z,23.7
2018-09-21T10:55:08.263Z,23.7
2018-09-21T10:55:58.255Z,23.7
2018-09-21T10:56:49.775Z,23.7
2018-09-21T10:57:38.770Z,23.7
2018-09-21T10:58:29.178Z,23.7
2018-09-21T10:59:18.911Z,23.7
2018-09-21T11:00:08.380Z,23.7
2018-09-21T11:00:59.257Z,23.7
2018-09-21T11:01:49.215Z,23.7
2018-09-21T11:02:39.076Z,23.7
2018-09-21T11:03:28.970Z,23.7
2018-09-21T11:04:19.444Z,23.7
2018-09-21T11:05:08.737Z,23.8
2018-09-21T11:05:59.824Z,23.8
2018-09-21T11:06:49.319Z,23.8
2018-09-21T11:07:39.965Z,23.7
2018-09-21T11:08:29.749Z,23.8
2018-09-21T11:09:19.897Z,23.8
2018-09-21T11:10:09.614Z,23.7
2018-09-21T11:10:59.694Z,23.8
2018-09-21T11:11:49.861Z,23.8
2018-09-21T11:12:39.926Z,23.8
2018-09-21T11:13:30.449Z,23.8
2018-09-21T11:14:20.037Z,23.8
2018-09-21T11:15:09.805Z,23.8
2018-09-21T11:16:00.351Z,23.8
2018-09-21T11:16:50.558Z,23.8
2018-09-21T11:17:40.504Z,23.8
2018-09-21T11:18:30.543Z,23.8
2018-09-21T11:19:20.015Z,23.8
2018-09-21T11:20:10.433Z,23.8
2018-09-21T11:21:00.718Z,23.8
2018-09-21T11:21:51.139Z,23.8
2018-09-21T11:22:39.710Z,23.8
2018-09-21T11:23:30.308Z,23.8
2018-09-21T11:24:20.796Z,23.8
2018-09-21T11:25:11.068Z,23.8
2018-09-21T11:26:01.103Z,23.8
2018-09-21T11:26:51.428Z,23.8
2018-09-21T11:27:40.723Z,23.8
2018-09-21T11:28:31.304Z,23.8
2018-09-21T11:29:20.577Z,23.8
2018-09-21T11:30:10.356Z,23.8
2018-09-21T11:31:01.799Z,23.8
2018-09-21T11:31:50.760Z,23.8
2018-09-21T11:32:41.585Z,23.8
2018-09-21T11:33:32.042Z,23.8
2018-09-21T11:34:21.218Z,23.8
2018-09-21T11:35:11.835Z,23.9
2018-09-21T11:36:01.591Z,23.8
2018-09-21T11:36:52.208Z,23.8
2018-09-21T11:37:41.842Z,23.8
2018-09-21T11:38:31.604Z,23.8
2018-09-21T11:39:19.962Z,23.8
2018-09-21T11:40:12.222Z,23.8
2018-09-21T11:41:02.559Z,23.9
2018-09-21T11:41:51.372Z,23.9
2018-09-21T11:42:42.377Z,23.9
2018-09-21T11:43:32.239Z,23.9
2018-09-21T11:44:22.005Z,23.9
2018-09-21T11:45:11.229Z,23.9
2018-09-21T11:46:02.161Z,23.9
2018-09-21T11:46:55.800Z,23.9
2018-09-21T11:47:44.718Z,23.9
2018-09-21T11:48:32.824Z,23.9
2018-09-21T11:49:22.915Z,23.9
2018-09-21T11:50:12.679Z,23.9
2018-09-21T11:51:03.369Z,23.9
2018-09-21T11:51:53.056Z,23.9
2018-09-21T11:52:43.399Z,23.9
2018-09-21T11:53:33.176Z,23.9
2018-09-21T11:54:23.262Z,23.9
2018-09-21T11:55:12.491Z,23.9
2018-09-21T11:56:03.158Z,23.9
2018-09-21T11:56:53.444Z,23.9
2018-09-21T11:57:43.516Z,23.9
2018-09-21T11:58:33.302Z,23.9
2018-09-21T11:59:23.691Z,23.9
2018-09-21T12:00:13.144Z,23.9
2018-09-21T12:01:03.466Z,23.9
2018-09-21T12:01:54.259Z,23.9
2018-09-21T12:02:43.697Z,23.9
2018-09-21T12:03:33.923Z,23.8
2018-09-21T12:04:23.581Z,23.8
2018-09-21T12:05:13.076Z,23.8
2018-09-21T12:06:03.091Z,23.8
2018-09-21T12:06:54.528Z,23.9
2018-09-21T12:07:43.739Z,23.9
2018-09-21T12:08:33.988Z,23.9
2018-09-21T12:09:24.675Z,23.9
2018-09-21T12:10:14.718Z,23.9
2018-09-21T12:11:04.521Z,23.9
2018-09-21T12:11:54.550Z,23.9
2018-09-21T12:12:44.093Z,23.9
2018-09-21T12:13:35.267Z,23.9
2018-09-21T12:14:23.675Z,23.9
2018-09-21T12:15:14.844Z,23.9
2018-09-21T12:16:06.767Z,23.9
2018-09-21T12:16:55.944Z,23.9
2018-09-21T12:17:45.346Z,23.9
2018-09-21T12:18:35.145Z,23.8
2018-09-21T12:19:25.423Z,23.9
2018-09-21T12:20:15.215Z,23.9
2018-09-21T12:21:04.998Z,23.8
2018-09-21T12:21:55.542Z,23.9
2018-09-21T12:22:46.384Z,23.8
2018-09-21T12:23:35.739Z,23.9
2018-09-21T12:24:25.939Z,23.9
2018-09-21T12:25:15.684Z,23.9
2018-09-21T12:26:05.672Z,23.9
2018-09-21T12:26:56.061Z,23.9
2018-09-21T12:27:45.757Z,23.9
2018-09-21T12:28:35.690Z,23.8
2018-09-21T12:29:25.849Z,23.8
2018-09-21T12:30:16.374Z,23.8
2018-09-21T12:31:06.101Z,23.9
2018-09-21T12:31:56.155Z,23.9
2018-09-21T12:32:45.892Z,23.9
2018-09-21T12:33:35.999Z,23.8
2018-09-21T12:34:26.552Z,23.9
2018-09-21T12:35:16.312Z,23.9
2018-09-21T12:36:07.928Z,23.9
2018-09-21T12:36:56.763Z,23.8
2018-09-21T12:37:46.569Z,23.9
2018-09-21T12:38:38.111Z,23.8
2018-09-21T12:39:26.186Z,23.8
2018-09-21T12:40:16.728Z,23.8
2018-09-21T12:41:06.232Z,23.9
2018-09-21T12:41:56.289Z,23.9
2018-09-21T12:42:47.604Z,23.8
2018-09-21T12:43:36.144Z,23.8
2018-09-21T12:44:27.110Z,23.8
2018-09-21T12:45:17.061Z,23.9
2018-09-21T12:46:07.469Z,23.8
2018-09-21T12:46:56.951Z,23.8
2018-09-21T12:47:47.325Z,23.8
2018-09-21T12:48:37.413Z,23.8
2018-09-21T12:49:27.711Z,23.8
2018-09-21T12:50:18.651Z,23.8
2018-09-21T12:51:07.657Z,23.8
2018-09-21T12:51:57.660Z,23.8
2018-09-21T12:52:46.841Z,23.8
2018-09-21T12:53:37.479Z,23.9
2018-09-21T12:54:27.817Z,23.8
2018-09-21T12:55:17.583Z,23.8
2018-09-21T12:56:07.938Z,23.8
2018-09-21T12:56:57.203Z,23.8
2018-09-21T12:57:49.435Z,23.8
2018-09-21T12:58:39.624Z,23.8
2018-09-21T12:59:28.594Z,23.8